.
WxDataArchive / Data Records for 2015-10-24
2015-10-23 October 2015 2015-10-25

Data Records for Saturday, 24 October 2015

Time	Temp	Chill	HIndex	Humid	Dewpt	 Wind 	HiWind	WindDir	Rain 	Barom
-----	----	-----	------	-----	-----	------	------	-------	-----	-----
00:00	54.8	54.8	54.8	67	44.1	0	1	90	0.00	30.023 
00:05	54.8	54.8	54.8	67	44.1	1	2	68	0.00	30.023 
00:10	54.8	54.8	54.8	67	44.1	0	3	68	0.00	30.023 
00:15	54.8	54.8	54.8	67	44.1	0	2	68	0.00	30.013 
00:20	54.8	54.8	54.8	67	44.1	0	2	68	0.00	30.013 
00:25	54.8	54.8	54.8	67	44.1	0	3	68	0.00	30.013 
00:30	54.8	54.8	54.8	67	44.1	0	3	68	0.00	30.010 
00:35	54.8	54.8	54.8	67	44.1	1	3	68	0.00	30.010 
00:40	54.8	54.8	54.8	67	44.1	1	4	68	0.00	30.010 
00:45	55.0	55.0	55.0	67	44.2	0	2	68	0.00	29.997 
00:50	55.0	55.0	55.0	67	44.2	0	1	68	0.00	29.997 
00:55	55.0	55.0	55.0	66	43.9	0	3	68	0.00	29.997 
01:00	55.0	55.0	55.0	67	44.2	0	1	68	0.00	29.997 
01:05	55.0	55.0	55.0	66	43.9	0	4	68	0.00	29.997 
01:10	55.1	55.1	55.1	66	43.9	0	1	68	0.00	29.997 
01:15	55.1	55.1	55.1	67	44.3	0	1	68	0.00	29.990 
01:20	55.1	55.1	55.1	67	44.3	0	2	68	0.00	29.990 
01:25	55.1	55.1	55.1	66	43.9	0	1	68	0.00	29.990 
01:30	55.1	55.1	55.1	67	44.3	0	1	68	0.00	29.990 
01:35	55.1	55.1	55.1	69	45.1	0	0	---	0.00	29.990 
01:40	55.0	55.0	55.0	73	46.5	0	0	---	0.00	29.990 
01:45	54.8	54.8	54.8	75	47.0	0	1	68	0.00	29.982 
01:50	54.5	54.5	54.5	76	47.1	0	0	---	0.00	29.982 
01:55	54.2	54.2	54.2	77	47.1	0	1	68	0.00	29.982 
02:00	54.1	54.1	54.1	78	47.4	0	0	---	0.00	29.982 
02:05	54.1	54.1	54.1	79	47.7	0	0	---	0.01	29.982 
02:10	53.9	53.9	53.9	80	47.9	0	0	---	0.00	29.982 
02:15	53.8	53.8	53.8	81	48.1	0	0	---	0.00	29.986 
02:20	53.6	53.6	53.6	82	48.2	0	0	---	0.00	29.986 
02:25	53.5	53.5	53.5	83	48.5	0	0	---	0.00	29.986 
02:30	53.5	53.5	53.5	84	48.8	0	0	---	0.00	29.984 
02:35	53.3	53.3	53.3	84	48.6	0	0	---	0.00	29.984 
02:40	53.3	53.3	53.3	85	48.9	0	0	---	0.00	29.984 
02:45	53.3	53.3	53.3	86	49.2	0	0	---	0.00	29.983 
02:50	53.2	53.2	53.2	86	49.1	0	0	---	0.01	29.983 
02:55	53.2	53.2	53.2	86	49.1	0	0	---	0.01	29.983 
03:00	53.2	53.2	53.2	87	49.4	0	0	---	0.01	29.979 
03:05	53.2	53.2	53.2	88	49.7	0	0	---	0.01	29.979 
03:10	53.2	53.2	53.2	88	49.7	0	0	---	0.00	29.979 
03:15	53.5	53.5	53.5	89	50.3	0	1	68	0.00	29.966 
03:20	54.1	54.1	54.1	91	51.5	0	1	68	0.00	29.966 
03:25	54.4	54.4	54.4	91	51.8	0	1	68	0.00	29.966 
03:30	55.0	55.0	55.0	92	52.7	0	2	68	0.00	29.958 
03:35	55.7	55.7	55.7	92	53.4	0	1	68	0.01	29.958 
03:40	56.3	56.3	56.3	92	54.0	0	2	112	0.00	29.958 
03:45	56.7	56.7	56.7	92	54.4	0	1	112	0.00	29.949 
03:50	57.0	57.0	57.0	92	54.7	0	1	112	0.00	29.949 
03:55	57.5	57.5	57.5	93	55.5	0	2	112	0.01	29.949 
04:00	57.6	57.6	57.6	93	55.6	0	2	112	0.01	29.941 
04:05	58.0	58.0	58.0	93	56.0	0	3	112	0.00	29.941 
04:10	58.1	58.1	58.1	93	56.1	0	3	112	0.00	29.941 
04:15	58.3	58.3	58.3	93	56.3	0	1	112	0.00	29.940 
04:20	58.4	58.4	58.4	93	56.4	0	2	112	0.00	29.940 
04:25	58.6	58.6	58.6	93	56.6	1	3	112	0.00	29.940 
04:30	58.9	58.9	58.9	93	56.9	1	4	112	0.01	29.924 
04:35	59.0	59.0	59.0	93	57.0	1	4	90	0.00	29.924 
04:40	59.0	59.0	59.0	94	57.3	0	1	135	0.01	29.924 
04:45	59.2	59.2	59.2	94	57.5	0	2	112	0.01	29.920 
04:50	59.2	59.2	59.2	94	57.5	0	3	112	0.01	29.920 
04:55	59.2	59.2	59.2	94	57.5	0	1	112	0.01	29.920 
05:00	59.2	59.2	59.2	94	57.5	0	3	112	0.00	29.908 
05:05	59.2	59.2	59.2	94	57.5	0	4	112	0.01	29.908 
05:10	59.2	59.2	59.2	94	57.5	0	1	90	0.00	29.908 
05:15	59.2	59.2	59.2	94	57.5	0	1	90	0.00	29.906 
05:20	59.2	59.2	59.2	94	57.5	0	2	90	0.01	29.906 
05:25	59.2	59.2	59.2	94	57.5	0	1	90	0.00	29.906 
05:30	59.0	59.0	59.0	94	57.3	0	1	90	0.00	29.892 
05:35	59.0	59.0	59.0	94	57.3	0	2	90	0.00	29.892 
05:40	59.0	59.0	59.0	94	57.3	0	1	90	0.00	29.892 
05:45	59.0	59.0	59.0	94	57.3	0	1	90	0.00	29.893 
05:50	59.0	59.0	59.0	94	57.3	0	1	90	0.00	29.893 
05:55	59.0	59.0	59.0	94	57.3	0	0	---	0.01	29.893 
06:00	59.0	59.0	59.0	94	57.3	0	0	---	0.00	29.891 
06:05	59.0	59.0	59.0	94	57.3	0	0	---	0.00	29.891 
06:10	59.0	59.0	59.0	94	57.3	0	3	90	0.00	29.891 
06:15	59.2	59.2	59.2	94	57.5	0	1	90	0.00	29.894 
06:20	59.2	59.2	59.2	94	57.5	0	2	90	0.00	29.894 
06:25	59.3	59.3	59.3	94	57.6	0	1	90	0.00	29.894 
06:30	59.3	59.3	59.3	94	57.6	0	1	90	0.00	29.892 
06:35	59.5	59.5	59.5	94	57.8	0	2	90	0.00	29.892 
06:40	59.5	59.5	59.5	94	57.8	0	2	90	0.00	29.892 
06:45	59.5	59.5	59.5	94	57.8	0	2	90	0.00	29.887 
06:50	59.6	59.6	59.6	94	57.9	0	3	135	0.00	29.887 
06:55	59.6	59.6	59.6	94	57.9	0	1	112	0.00	29.887 
07:00	59.6	59.6	59.6	94	57.9	0	1	112	0.00	29.886 
07:05	59.6	59.6	59.6	94	57.9	0	1	112	0.00	29.886 
07:10	59.6	59.6	59.6	94	57.9	0	2	112	0.00	29.886 
07:15	59.8	59.8	59.8	94	58.1	0	1	112	0.00	29.885 
07:20	59.8	59.8	59.8	94	58.1	0	1	112	0.00	29.885 
07:25	59.8	59.8	59.8	94	58.1	0	1	112	0.00	29.885 
07:30	59.8	59.8	59.8	93	57.8	0	1	112	0.00	29.877 
07:35	59.8	59.8	59.8	93	57.8	0	0	---	0.00	29.877 
07:40	59.9	59.9	59.9	93	57.9	0	0	---	0.00	29.877 
07:45	59.9	59.9	59.9	93	57.9	0	1	112	0.00	29.879 
07:50	59.9	59.9	59.9	93	57.9	0	2	112	0.00	29.879 
07:55	59.9	59.9	59.9	93	57.9	0	1	112	0.00	29.879 
08:00	59.9	59.9	59.9	93	57.9	0	1	112	0.00	29.878 
08:05	60.1	60.1	60.1	93	58.1	0	0	---	0.00	29.878 
08:10	60.2	60.2	60.2	93	58.2	0	0	---	0.00	29.878 
08:15	60.2	60.2	60.2	93	58.2	0	1	112	0.00	29.880 
08:20	60.4	60.4	60.4	93	58.4	0	2	112	0.00	29.880 
08:25	60.4	60.4	60.4	93	58.4	0	2	112	0.00	29.880 
08:30	60.5	60.5	60.5	93	58.5	0	1	112	0.00	29.875 
08:35	60.5	60.5	60.5	93	58.5	0	1	112	0.00	29.875 
08:40	60.7	60.7	60.7	92	58.4	0	2	112	0.00	29.875 
08:45	60.9	60.9	60.9	92	58.6	0	1	112	0.00	29.876 
08:50	61.0	61.0	61.0	92	58.7	0	2	90	0.00	29.876 
08:55	61.2	61.2	61.2	92	58.9	0	2	90	0.00	29.876 
09:00	61.3	61.3	61.3	92	59.0	0	2	90	0.00	29.882 
09:05	61.5	61.5	61.5	91	58.8	0	1	90	0.00	29.882 
09:10	61.6	61.6	61.6	91	58.9	0	2	90	0.00	29.882 
09:15	61.8	61.8	61.8	91	59.1	0	1	90	0.00	29.879 
09:20	61.8	61.8	61.8	91	59.1	0	1	90	0.00	29.879 
09:25	62.0	62.0	62.0	91	59.3	0	1	90	0.00	29.879 
09:30	62.1	62.1	62.1	91	59.4	0	1	90	0.00	29.876 
09:35	62.3	62.3	62.3	90	59.3	0	1	90	0.00	29.876 
09:40	62.6	62.6	62.6	90	59.6	0	0	---	0.00	29.876 
09:45	62.7	62.7	62.7	89	59.4	0	1	90	0.00	29.871 
09:50	62.9	62.9	62.9	89	59.6	0	1	90	0.00	29.871 
09:55	63.2	63.2	63.2	88	59.6	0	1	90	0.00	29.871 
10:00	63.4	63.4	63.4	88	59.8	0	2	90	0.00	29.874 
10:05	63.7	63.7	63.7	87	59.8	0	2	90	0.00	29.874 
10:10	63.9	63.9	63.9	87	59.9	0	1	90	0.00	29.874 
10:15	64.2	64.2	64.2	86	59.9	0	1	90	0.00	29.873 
10:20	64.3	64.3	64.3	86	60.0	0	3	90	0.00	29.873 
10:25	64.5	64.5	64.5	85	59.9	0	2	90	0.00	29.873 
10:30	64.7	64.7	64.7	84	59.7	1	6	90	0.00	29.875 
10:35	65.0	65.0	65.0	84	60.0	0	1	292	0.00	29.875 
10:40	65.2	65.2	65.2	83	59.9	1	4	292	0.00	29.875 
10:45	65.3	65.3	65.3	83	60.0	0	1	292	0.00	29.864 
10:50	65.5	65.5	65.5	82	59.9	1	3	292	0.00	29.864 
10:55	65.6	65.6	65.6	82	59.9	0	2	292	0.00	29.864 
11:00	65.6	65.6	65.6	82	59.9	0	2	292	0.00	29.866 
11:05	65.8	65.8	65.8	81	59.8	1	4	248	0.00	29.866 
11:10	65.8	65.8	65.8	81	59.8	0	2	248	0.00	29.866 
11:15	66.0	66.0	66.0	81	60.0	1	3	270	0.00	29.863 
11:20	66.1	66.1	66.1	81	60.1	0	2	270	0.00	29.863 
11:25	66.1	66.1	66.1	81	60.1	0	3	270	0.00	29.863 
11:30	66.3	66.3	66.3	81	60.3	0	1	248	0.00	29.861 
11:35	66.4	66.4	66.4	81	60.4	1	3	248	0.00	29.861 
11:40	66.6	66.6	66.6	81	60.6	0	3	248	0.00	29.861 
11:45	66.8	66.8	66.8	80	60.4	0	5	270	0.00	29.856 
11:50	67.1	67.1	67.1	80	60.7	0	4	270	0.00	29.856 
11:55	67.3	67.3	67.3	79	60.6	1	4	202	0.00	29.856 
12:00	67.4	67.4	67.4	78	60.3	0	2	202	0.00	29.848 
12:05	67.8	67.8	67.8	78	60.7	1	5	292	0.00	29.848 
12:10	68.1	68.1	68.1	78	61.0	0	2	270	0.00	29.848 
12:15	68.3	68.3	68.3	77	60.8	1	4	270	0.00	29.841 
12:20	68.4	68.4	68.4	76	60.5	1	6	248	0.00	29.841 
12:25	68.6	68.6	68.6	76	60.7	1	3	248	0.00	29.841 
12:30	68.9	68.9	68.9	76	61.0	0	1	248	0.00	29.839 
12:35	69.1	69.1	69.1	76	61.2	1	3	248	0.00	29.839 
12:40	69.4	69.4	69.4	74	60.7	1	6	248	0.00	29.839 
12:45	69.6	69.6	69.6	74	60.9	1	9	45	0.00	29.834 
12:50	69.6	69.6	69.6	74	60.9	2	4	248	0.00	29.834 
12:55	69.6	69.6	69.6	74	60.9	2	6	248	0.00	29.834 
13:00	69.6	69.6	69.6	74	60.9	1	5	248	0.00	29.837 
13:05	69.4	69.4	69.4	74	60.7	1	3	248	0.00	29.837 
13:10	69.4	69.4	69.4	74	60.7	2	6	248	0.00	29.837 
13:15	69.4	69.4	69.4	74	60.7	0	3	248	0.00	29.830 
13:20	69.4	69.4	69.4	74	60.7	0	2	338	0.00	29.830 
13:25	69.4	69.4	69.4	74	60.7	1	4	112	0.00	29.830 
13:30	69.4	69.4	69.4	74	60.7	1	4	135	0.00	29.826 
13:35	69.6	69.6	69.6	74	60.9	1	3	248	0.00	29.826 
13:40	69.6	69.6	69.6	74	60.9	1	4	248	0.00	29.826 
13:45	69.8	69.8	69.8	73	60.7	1	2	248	0.00	29.821 
13:50	69.9	69.9	69.9	73	60.8	1	5	248	0.00	29.821 
13:55	70.1	70.1	70.1	73	61.0	0	5	248	0.00	29.821 
14:00	70.3	70.3	70.3	72	60.8	1	4	248	0.00	29.813 
14:05	70.3	70.3	70.3	72	60.8	1	4	248	0.00	29.813 
14:10	70.3	70.3	70.3	73	61.2	0	3	248	0.00	29.813 
14:15	70.3	70.3	70.3	72	60.8	0	2	248	0.00	29.809 
14:20	70.3	70.3	70.3	72	60.8	1	6	248	0.00	29.809 
14:25	70.3	70.3	70.3	72	60.8	1	5	270	0.00	29.809 
14:30	70.3	70.3	70.3	72	60.8	0	4	270	0.00	29.806 
14:35	70.4	70.4	70.4	72	60.9	1	3	248	0.00	29.806 
14:40	70.4	70.4	70.4	72	60.9	1	4	248	0.00	29.806 
14:45	70.6	70.6	70.6	72	61.1	1	6	248	0.00	29.794 
14:50	70.8	70.8	70.8	71	60.9	1	4	270	0.00	29.794 
14:55	70.8	70.8	70.8	72	61.3	1	3	248	0.00	29.794 
15:00	70.6	70.6	70.6	72	61.1	0	3	248	0.00	29.794 
15:05	70.4	70.4	70.4	72	60.9	0	4	248	0.00	29.794 
15:10	70.4	70.4	70.4	73	61.3	0	4	248	0.00	29.794 
15:15	70.4	70.4	70.4	72	60.9	1	6	270	0.00	29.789 
15:20	70.6	70.6	70.6	72	61.1	1	4	270	0.00	29.789 
15:25	70.8	70.8	70.8	71	60.9	1	5	248	0.00	29.789 
15:30	70.8	70.8	70.8	71	60.9	1	4	248	0.00	29.787 
15:35	70.8	70.8	70.8	72	61.3	1	4	248	0.00	29.787 
15:40	70.8	70.8	70.8	72	61.3	1	6	248	0.00	29.787 
15:45	70.9	70.9	70.9	72	61.4	1	5	248	0.00	29.782 
15:50	70.9	70.9	70.9	72	61.4	0	3	248	0.00	29.782 
15:55	70.9	70.9	70.9	72	61.4	0	2	248	0.00	29.782 
16:00	70.8	70.8	70.8	73	61.7	1	4	248	0.00	29.776 
16:05	70.8	70.8	70.8	73	61.7	0	3	248	0.00	29.776 
16:10	70.6	70.6	70.6	73	61.5	1	4	248	0.00	29.776 
16:15	70.4	70.4	70.4	73	61.3	1	3	248	0.00	29.762 
16:20	70.4	70.4	70.4	73	61.3	0	1	248	0.00	29.762 
16:25	70.3	70.3	70.3	73	61.2	0	3	248	0.00	29.762 
16:30	70.3	70.3	70.3	74	61.6	1	6	270	0.00	29.770 
16:35	70.1	70.1	70.1	73	61.0	1	4	248	0.00	29.770 
16:40	70.1	70.1	70.1	74	61.4	1	4	248	0.00	29.770 
16:45	69.9	69.9	69.9	74	61.2	1	3	315	0.00	29.773 
16:50	69.9	69.9	69.9	74	61.2	1	5	292	0.00	29.773 
16:55	69.8	69.8	69.8	74	61.1	1	5	248	0.00	29.773 
17:00	69.4	69.4	69.4	78	62.2	1	7	248	0.03	29.772 
17:05	68.3	68.3	68.3	78	61.2	1	4	248	0.08	29.772 
17:10	66.6	66.6	66.6	84	61.6	2	6	248	0.05	29.772 
17:15	65.2	65.2	65.2	86	60.9	1	6	270	0.01	29.795 
17:20	64.3	64.3	64.3	87	60.3	1	4	248	0.00	29.795 
17:25	63.7	63.7	63.7	88	60.1	1	5	248	0.00	29.795 
17:30	63.4	63.4	63.4	89	60.1	0	3	270	0.00	29.797 
17:35	63.1	63.1	63.1	89	59.8	0	3	270	0.00	29.797 
17:40	62.9	62.9	62.9	90	59.9	1	3	270	0.00	29.797 
17:45	62.7	62.7	62.7	90	59.7	0	1	270	0.00	29.804 
17:50	62.4	62.4	62.4	90	59.4	0	3	270	0.00	29.804 
17:55	62.1	62.1	62.1	90	59.1	0	3	270	0.00	29.804 
18:00	61.8	61.8	61.8	90	58.8	1	3	270	0.00	29.813 
18:05	61.5	61.5	61.5	90	58.5	1	4	270	0.00	29.813 
18:10	61.3	61.3	61.3	90	58.3	1	3	270	0.00	29.813 
18:15	61.2	61.2	61.2	89	57.9	0	2	270	0.00	29.826 
18:20	60.9	60.9	60.9	89	57.6	0	2	270	0.00	29.826 
18:25	60.7	60.7	60.7	89	57.4	1	3	270	0.00	29.826 
18:30	60.7	60.7	60.7	88	57.1	0	3	270	0.00	29.830 
18:35	60.7	60.7	60.7	88	57.1	1	4	270	0.00	29.830 
18:40	60.7	60.7	60.7	87	56.8	1	4	270	0.00	29.830 
18:45	60.9	60.9	60.9	86	56.7	2	5	270	0.00	29.844 
18:50	60.9	60.9	60.9	85	56.4	1	5	292	0.00	29.844 
18:55	60.9	60.9	60.9	84	56.0	1	3	292	0.00	29.844 
19:00	60.9	60.9	60.9	83	55.7	1	5	292	0.00	29.853 
19:05	60.9	60.9	60.9	82	55.4	2	6	292	0.00	29.853 
19:10	60.9	60.9	60.9	81	55.0	1	3	292	0.00	29.853 
19:15	60.7	60.7	60.7	81	54.8	0	2	292	0.00	29.861 
19:20	60.5	60.5	60.5	80	54.3	2	6	270	0.00	29.861 
19:25	60.5	60.5	60.5	78	53.6	3	7	270	0.00	29.861 
19:30	60.5	60.5	60.5	79	54.0	1	5	270	0.00	29.866 
19:35	60.5	60.5	60.5	78	53.6	2	5	270	0.00	29.866 
19:40	60.4	60.4	60.4	79	53.9	0	2	270	0.00	29.866 
19:45	60.2	60.2	60.2	79	53.7	1	5	270	0.00	29.878 
19:50	60.1	60.1	60.1	79	53.6	1	3	270	0.00	29.878 
19:55	59.9	59.9	59.9	79	53.4	1	4	270	0.00	29.878 
20:00	59.8	59.8	59.8	78	52.9	1	6	270	0.00	29.890 
20:05	59.6	59.6	59.6	77	52.4	1	5	270	0.00	29.890 
20:10	59.6	59.6	59.6	77	52.4	1	5	270	0.00	29.890 
20:15	59.6	59.6	59.6	76	52.0	1	6	270	0.00	29.907 
20:20	59.6	59.6	59.6	76	52.0	1	4	270	0.00	29.907 
20:25	59.6	59.6	59.6	76	52.0	1	4	270	0.00	29.907 
20:30	59.5	59.5	59.5	76	51.9	1	5	270	0.00	29.910 
20:35	59.5	59.5	59.5	75	51.6	2	5	270	0.00	29.910 
20:40	59.5	59.5	59.5	75	51.6	3	6	270	0.00	29.910 
20:45	59.5	59.5	59.5	75	51.6	2	7	292	0.00	29.917 
20:50	59.3	59.3	59.3	75	51.4	2	7	270	0.00	29.917 
20:55	59.3	59.3	59.3	75	51.4	3	6	292	0.00	29.917 
21:00	59.2	59.2	59.2	76	51.6	3	6	270	0.00	29.924 
21:05	59.2	59.2	59.2	76	51.6	3	7	270	0.00	29.924 
21:10	59.0	59.0	59.0	77	51.8	3	6	292	0.00	29.924 
21:15	58.7	58.7	58.7	77	51.5	4	7	270	0.00	29.927 
21:20	58.6	58.6	58.6	79	52.1	2	7	270	0.00	29.927 
21:25	58.3	58.3	58.3	80	52.2	1	4	270	0.00	29.927 
21:30	58.1	58.1	58.1	81	52.3	1	4	270	0.00	29.938 
21:35	58.0	58.0	58.0	81	52.2	1	7	270	0.00	29.938 
21:40	58.0	58.0	58.0	81	52.2	2	5	270	0.00	29.938 
21:45	57.8	57.8	57.8	82	52.3	1	4	270	0.00	29.942 
21:50	57.8	57.8	57.8	82	52.3	1	4	270	0.00	29.942 
21:55	57.6	57.6	57.6	82	52.1	2	5	270	0.00	29.942 
22:00	57.5	57.5	57.5	83	52.4	1	5	270	0.00	29.947 
22:05	57.3	57.3	57.3	83	52.2	2	6	270	0.00	29.947 
22:10	57.2	57.2	57.2	84	52.4	2	6	270	0.00	29.947 
22:15	57.2	57.2	57.2	84	52.4	2	5	270	0.00	29.950 
22:20	57.0	57.0	57.0	84	52.2	1	4	248	0.00	29.950 
22:25	57.0	57.0	57.0	84	52.2	2	5	248	0.00	29.950 
22:30	56.9	56.9	56.9	84	52.1	2	5	270	0.00	29.954 
22:35	56.9	56.9	56.9	84	52.1	2	6	270	0.00	29.954 
22:40	56.9	56.9	56.9	84	52.1	2	6	292	0.00	29.954 
22:45	56.7	56.7	56.7	84	51.9	1	4	292	0.00	29.960 
22:50	56.7	56.7	56.7	84	51.9	1	5	292	0.00	29.960 
22:55	56.7	56.7	56.7	84	51.9	1	3	292	0.00	29.960 
23:00	56.6	56.6	56.6	85	52.1	2	5	270	0.00	29.971 
23:05	56.6	56.6	56.6	85	52.1	2	6	270	0.00	29.971 
23:10	56.5	56.5	56.5	86	52.4	2	4	292	0.00	29.971 
23:15	56.3	56.3	56.3	87	52.5	2	9	292	0.00	29.982 
23:20	56.0	56.0	56.0	88	52.5	3	6	270	0.00	29.982 
23:25	55.7	55.7	55.7	89	52.5	2	4	292	0.00	29.982 
23:30	55.3	55.3	55.3	89	52.1	2	5	270	0.00	29.988 
23:35	55.0	55.0	55.0	90	52.1	2	5	270	0.00	29.988 
23:40	54.7	54.7	54.7	90	51.8	2	5	292	0.00	29.988 
23:45	54.4	54.4	54.4	91	51.8	2	4	292	0.00	30.001 
23:50	54.2	54.2	54.2	91	51.6	1	5	292	0.00	30.001 
23:55	54.1	54.1	54.1	91	51.5	1	3	292	0.00	30.001 

CoCoRaHS
IN-AL-39
A2 Web Hosting
Creative Commons License
GoDaddy
search engine by freefind advanced

loaded 2018-11-12 15:39:31 • last modified 2010-11-18 10:43:29
Privacy PolicyDisclaimer
• wx.awcolley.com is powered by PmWiki v.2002016 •
• all content (unless otherwise noted) © 2018 A W Colley